Time;durP1;ratioP1;P1;durP2;ratioP2;P2;SDS_P1;SDS_P2;PMS_P1;PMS_P2;Temp;Humidity;BMP_temperature;BMP_pressure;BME280_temperature;BME280_humidity;BME280_pressure;Samples;Min_cycle;Max_cycle;Signal;HPM_P1;HPM_P2
2023/03/30 00:00:32;;;;;;;6.50;3.40;;;16.00;63.80;;;;;;4984937;28;20492;-73
2023/03/30 00:03:01;;;;;;;10.90;3.17;;;16.00;63.70;;;;;;4986754;28;21023;-72
2023/03/30 00:05:28;;;;;;;15.23;3.30;;;16.10;63.40;;;;;;4990985;28;20468;-75
2023/03/30 00:07:54;;;;;;;13.03;3.90;;;16.10;63.50;;;;;;4988261;28;20484;-72
2023/03/30 00:10:20;;;;;;;12.73;2.93;;;16.10;63.20;;;;;;4986980;28;20482;-73
2023/03/30 00:12:47;;;;;;;11.20;3.77;;;16.00;63.50;;;;;;4982161;28;20994;-75
2023/03/30 00:15:15;;;;;;;15.50;3.63;;;16.10;63.20;;;;;;4987317;28;20946;-72
2023/03/30 00:17:42;;;;;;;7.90;2.93;;;16.10;63.10;;;;;;4989104;28;20533;-72
2023/03/30 00:20:10;;;;;;;12.80;3.60;;;16.20;63.10;;;;;;4987621;28;20517;-72
2023/03/30 00:22:37;;;;;;;10.80;2.70;;;16.20;62.90;;;;;;4983257;28;20576;-72
2023/03/30 00:25:02;;;;;;;9.53;3.37;;;16.30;63.10;;;;;;4986064;28;20505;-71
2023/03/30 00:27:28;;;;;;;9.87;3.60;;;16.30;62.90;;;;;;4988136;28;20819;-71
2023/03/30 00:29:54;;;;;;;23.07;4.20;;;16.30;63.20;;;;;;4988892;28;20432;-72
2023/03/30 00:32:20;;;;;;;18.30;3.83;;;16.30;63.40;;;;;;4984541;28;20686;-73
2023/03/30 00:34:45;;;;;;;9.73;3.00;;;16.30;63.50;;;;;;4987731;28;20476;-72
2023/03/30 00:37:11;;;;;;;9.67;3.30;;;16.30;63.70;;;;;;4987357;28;20190;-72
2023/03/30 00:39:37;;;;;;;10.70;3.77;;;16.20;63.90;;;;;;4988865;28;20249;-72
2023/03/30 00:42:02;;;;;;;10.63;3.67;;;16.20;64.10;;;;;;4985228;28;20217;-71
2023/03/30 00:45:06;;;;;;;16.83;3.20;;;16.20;64.20;;;;;;4990969;28;20187;-71
2023/03/30 00:47:37;;;;;;;15.03;3.83;;;16.20;64.20;;;;;;4989565;28;20228;-72
2023/03/30 00:50:04;;;;;;;14.43;3.60;;;16.30;63.90;;;;;;4987744;28;20432;-71
2023/03/30 00:52:32;;;;;;;15.97;3.57;;;16.40;63.70;;;;;;4992597;28;20556;-72
2023/03/30 00:54:58;;;;;;;10.97;3.33;;;16.50;63.20;;;;;;4987637;28;20420;-72
2023/03/30 00:57:25;;;;;;;9.77;3.30;;;16.60;63.40;;;;;;4989137;28;20524;-72
2023/03/30 00:59:52;;;;;;;13.20;3.63;;;16.50;63.70;;;;;;4988861;28;20465;-71
2023/03/30 01:02:20;;;;;;;12.70;4.90;;;16.40;64.20;;;;;;4992302;28;20453;-72
2023/03/30 01:04:47;;;;;;;9.00;3.47;;;16.40;64.50;;;;;;4993091;28;20442;-71
2023/03/30 01:07:14;;;;;;;19.23;3.53;;;16.40;64.80;;;;;;4998038;28;20806;-73
2023/03/30 01:09:41;;;;;;;10.10;3.77;;;16.40;64.80;;;;;;4994685;28;20432;-71
2023/03/30 01:12:07;;;;;;;10.80;3.47;;;16.40;64.80;;;;;;4988434;28;20991;-72
2023/03/30 01:14:34;;;;;;;14.37;4.00;;;16.40;64.80;;;;;;4994368;28;20417;-73
2023/03/30 01:17:25;;;;;;;11.73;3.20;;;16.30;65.00;;;;;;4997668;28;20425;-72
2023/03/30 01:19:57;;;;;;;16.10;3.63;;;16.20;65.30;;;;;;4991375;28;20984;-72
2023/03/30 01:22:33;;;;;;;8.80;3.53;;;16.20;65.60;;;;;;4989686;28;20466;-72
2023/03/30 01:25:35;;;;;;;18.10;3.60;;;16.10;65.80;;;;;;4995453;28;21101;-72
2023/03/30 01:28:21;;;;;;;7.13;3.47;;;16.00;66.10;;;;;;4987915;28;20422;-71
2023/03/30 01:31:15;;;;;;;18.77;4.13;;;16.00;66.60;;;;;;4991491;28;20457;-72
2023/03/30 01:33:50;;;;;;;8.17;3.10;;;16.00;67.60;;;;;;4988349;28;20597;-72
2023/03/30 01:36:30;;;;;;;15.90;4.07;;;15.70;69.40;;;;;;4993233;28;20428;-71
2023/03/30 01:39:14;;;;;;;17.00;4.50;;;15.50;70.40;;;;;;4992337;28;20429;-71
2023/03/30 01:42:13;;;;;;;18.57;3.70;;;15.40;70.40;;;;;;4985917;28;20516;-72
2023/03/30 01:45:10;;;;;;;9.60;3.57;;;15.50;70.80;;;;;;4983300;28;20457;-70
2023/03/30 01:47:41;;;;;;;11.30;3.73;;;15.30;71.70;;;;;;4991817;28;20494;-72
2023/03/30 01:50:19;;;;;;;16.47;3.50;;;15.30;72.00;;;;;;4995051;28;20435;-70
2023/03/30 01:53:23;;;;;;;8.93;3.67;;;15.10;72.60;;;;;;4985162;28;20979;-71
2023/03/30 01:56:03;;;;;;;14.00;3.60;;;15.00;72.90;;;;;;4974638;28;20505;-71
2023/03/30 01:58:42;;;;;;;12.40;3.73;;;14.90;73.00;;;;;;4993982;28;20730;-73
2023/03/30 02:01:09;;;;;;;12.40;3.27;;;14.90;73.30;;;;;;4994283;28;20466;-72
2023/03/30 02:03:39;;;;;;;10.30;3.43;;;14.90;73.30;;;;;;4991375;28;20460;-72
2023/03/30 02:06:17;;;;;;;13.30;3.60;;;14.90;73.20;;;;;;5000727;28;20526;-74
2023/03/30 02:08:48;;;;;;;17.40;3.90;;;14.90;73.00;;;;;;4995613;28;20423;-73
2023/03/30 02:11:14;;;;;;;12.10;3.90;;;15.00;72.90;;;;;;4993380;28;20512;-71
2023/03/30 02:13:41;;;;;;;10.03;3.67;;;15.00;72.90;;;;;;4990038;28;20978;-72
2023/03/30 02:16:23;;;;;;;12.40;4.43;;;15.00;72.90;;;;;;4998882;28;20224;-72
2023/03/30 02:18:49;;;;;;;14.90;4.33;;;15.00;73.00;;;;;;4991683;28;20428;-72
2023/03/30 02:21:15;;;;;;;17.70;4.10;;;15.00;72.90;;;;;;4992060;28;21193;-71
2023/03/30 02:23:45;;;;;;;13.70;3.73;;;14.90;73.20;;;;;;4987634;28;20212;-73
2023/03/30 02:26:11;;;;;;;11.17;3.77;;;14.90;73.20;;;;;;4997899;28;20197;-72
2023/03/30 02:28:37;;;;;;;8.90;3.77;;;14.90;73.00;;;;;;4992786;28;20423;-72
2023/03/30 02:31:08;;;;;;;10.60;3.40;;;15.00;72.70;;;;;;4990809;28;20871;-72
2023/03/30 02:34:12;;;;;;;10.83;4.07;;;15.00;72.60;;;;;;4988834;28;20555;-72
2023/03/30 02:37:00;;;;;;;15.93;3.27;;;14.90;72.90;;;;;;4993328;28;20436;-71
2023/03/30 02:39:39;;;;;;;17.90;3.13;;;14.90;73.20;;;;;;4991844;28;20481;-72
2023/03/30 02:42:29;;;;;;;9.83;3.77;;;14.90;72.70;;;;;;4986222;28;20464;-71
2023/03/30 02:45:28;;;;;;;14.10;3.33;;;15.00;72.70;;;;;;4983795;28;20462;-73
2023/03/30 02:48:06;;;;;;;10.07;3.60;;;15.00;72.70;;;;;;4986339;28;20422;-71
2023/03/30 02:50:50;;;;;;;13.87;3.37;;;15.00;72.70;;;;;;4982554;28;20459;-72
2023/03/30 02:53:33;;;;;;;15.03;3.97;;;15.00;73.00;;;;;;4997374;28;20479;-71
2023/03/30 02:56:07;;;;;;;13.80;3.63;;;14.90;73.60;;;;;;4996198;28;20415;-71
2023/03/30 02:58:59;;;;;;;13.03;4.10;;;14.90;74.20;;;;;;4989357;28;20422;-71
2023/03/30 03:01:39;;;;;;;12.97;3.70;;;14.80;74.90;;;;;;4976837;28;20473;-72
2023/03/30 03:04:06;;;;;;;14.63;3.80;;;14.60;76.20;;;;;;4992746;28;20432;-72
2023/03/30 03:06:32;;;;;;;13.23;3.47;;;14.50;77.60;;;;;;4989658;28;20433;-72
2023/03/30 03:08:58;;;;;;;9.50;3.70;;;14.40;78.40;;;;;;4987393;28;20421;-72
2023/03/30 03:11:24;;;;;;;12.50;3.50;;;14.20;79.70;;;;;;4989470;28;20278;-72
2023/03/30 03:13:51;;;;;;;13.20;4.20;;;14.00;81.10;;;;;;4988999;28;20454;-71
2023/03/30 03:16:17;;;;;;;7.07;3.53;;;13.90;82.20;;;;;;4991034;28;20801;-71
2023/03/30 03:18:43;;;;;;;13.53;4.17;;;13.70;83.00;;;;;;4991584;28;20541;-71
2023/03/30 03:21:12;;;;;;;15.63;4.30;;;13.70;83.30;;;;;;4992894;28;21010;-72
2023/03/30 03:23:38;;;;;;;19.60;3.53;;;13.60;83.10;;;;;;4991350;28;20470;-72
2023/03/30 03:26:05;;;;;;;15.87;3.97;;;13.70;82.50;;;;;;4998696;28;20430;-72
2023/03/30 03:28:31;;;;;;;16.73;4.50;;;13.80;81.90;;;;;;4991573;28;20533;-72
2023/03/30 03:30:58;;;;;;;15.80;4.37;;;13.90;81.50;;;;;;4992235;28;20425;-72
2023/03/30 03:33:27;;;;;;;17.70;4.53;;;13.90;81.50;;;;;;4989430;28;20286;-73
2023/03/30 03:35:53;;;;;;;14.50;3.90;;;13.90;81.50;;;;;;4996391;28;20417;-72
2023/03/30 03:38:23;;;;;;;8.03;3.60;;;13.90;81.50;;;;;;4990524;28;20421;-72
2023/03/30 03:40:54;;;;;;;13.80;4.00;;;14.10;81.10;;;;;;4992892;28;20486;-72
2023/03/30 03:43:20;;;;;;;11.13;3.60;;;14.20;80.60;;;;;;4985887;28;20464;-72
2023/03/30 03:45:47;;;;;;;13.20;4.13;;;14.40;80.00;;;;;;4993818;28;20441;-73
2023/03/30 03:48:14;;;;;;;18.17;4.77;;;14.40;79.70;;;;;;4990748;28;20457;-73
2023/03/30 03:50:41;;;;;;;14.23;4.10;;;14.50;79.50;;;;;;4992439;28;20449;-73
2023/03/30 03:53:08;;;;;;;9.07;3.90;;;14.50;79.20;;;;;;4988941;28;20493;-72
2023/03/30 03:55:34;;;;;;;12.90;3.73;;;14.40;79.50;;;;;;4991052;28;20432;-73
2023/03/30 03:58:01;;;;;;;12.03;3.90;;;14.30;80.20;;;;;;4993851;28;20426;-72
2023/03/30 04:00:26;;;;;;;12.37;3.93;;;14.20;80.50;;;;;;4988876;28;20469;-73
2023/03/30 04:02:52;;;;;;;21.50;5.13;;;14.10;80.80;;;;;;4988964;28;20459;-73
2023/03/30 04:05:18;;;;;;;15.70;4.53;;;14.10;80.90;;;;;;4993100;28;20267;-72
2023/03/30 04:07:45;;;;;;;17.37;4.03;;;14.00;81.40;;;;;;4994179;28;20198;-72
2023/03/30 04:10:12;;;;;;;12.23;4.10;;;14.00;81.70;;;;;;4993141;28;20190;-72
2023/03/30 04:12:37;;;;;;;12.17;3.73;;;14.00;81.70;;;;;;4989128;28;20544;-73
2023/03/30 04:15:05;;;;;;;14.73;4.20;;;13.90;82.20;;;;;;4990765;28;20918;-72
2023/03/30 04:17:32;;;;;;;21.53;3.80;;;13.90;82.40;;;;;;4990972;28;20175;-72
2023/03/30 04:20:01;;;;;;;12.47;3.80;;;13.90;81.90;;;;;;4991778;28;20940;-72
2023/03/30 04:22:29;;;;;;;15.07;4.77;;;13.90;81.90;;;;;;4989526;28;20461;-72
2023/03/30 04:24:55;;;;;;;9.27;3.23;;;13.90;82.20;;;;;;4991202;28;20419;-72
2023/03/30 04:27:24;;;;;;;12.67;4.20;;;14.00;81.80;;;;;;4994713;28;20430;-73
2023/03/30 04:29:50;;;;;;;17.17;4.17;;;14.10;81.70;;;;;;4993741;28;20426;-72
2023/03/30 04:32:19;;;;;;;17.57;4.80;;;14.10;81.70;;;;;;4994585;28;20461;-71
2023/03/30 04:34:46;;;;;;;12.90;4.30;;;14.20;81.70;;;;;;4998857;28;20424;-72
2023/03/30 04:37:16;;;;;;;14.60;4.20;;;14.20;81.50;;;;;;4996268;28;20430;-73
2023/03/30 04:39:43;;;;;;;11.90;4.30;;;14.20;81.40;;;;;;4995991;28;20524;-73
2023/03/30 04:42:13;;;;;;;15.60;5.53;;;14.20;81.40;;;;;;4993612;28;20487;-72
2023/03/30 04:44:39;;;;;;;19.37;4.40;;;14.20;81.50;;;;;;4993488;28;20418;-73
2023/03/30 04:47:05;;;;;;;11.33;4.07;;;14.20;81.70;;;;;;4999414;28;20419;-73
2023/03/30 04:49:31;;;;;;;14.43;4.17;;;14.20;81.80;;;;;;4990065;28;20431;-73
2023/03/30 04:51:57;;;;;;;15.00;4.37;;;14.20;81.40;;;;;;4990180;28;20476;-72
2023/03/30 04:54:22;;;;;;;14.30;3.70;;;14.20;81.10;;;;;;5000213;28;20241;-72
2023/03/30 04:56:48;;;;;;;22.43;5.23;;;14.20;81.20;;;;;;4994024;28;21158;-72
2023/03/30 04:59:14;;;;;;;14.80;3.80;;;14.20;81.20;;;;;;4992822;28;20184;-72
2023/03/30 05:01:40;;;;;;;19.40;5.23;;;14.10;81.20;;;;;;4990772;28;20183;-72
2023/03/30 05:04:05;;;;;;;18.07;4.40;;;14.10;81.70;;;;;;4989260;28;20265;-73
2023/03/30 05:06:31;;;;;;;14.50;4.57;;;14.00;81.90;;;;;;4994587;28;20278;-73
2023/03/30 05:08:57;;;;;;;14.00;3.50;;;14.00;82.20;;;;;;4992275;28;20415;-72
2023/03/30 05:11:22;;;;;;;18.90;3.93;;;14.00;81.90;;;;;;4992258;28;20193;-72
2023/03/30 05:13:52;;;;;;;13.97;4.13;;;14.10;81.50;;;;;;4988503;28;20275;-73
2023/03/30 05:16:19;;;;;;;19.60;4.40;;;14.10;81.50;;;;;;4991396;28;20186;-73
2023/03/30 05:18:44;;;;;;;13.47;4.80;;;14.20;81.10;;;;;;4989835;28;20428;-72
2023/03/30 05:21:10;;;;;;;24.60;4.73;;;14.20;81.20;;;;;;4991475;28;20465;-72
2023/03/30 05:23:36;;;;;;;17.03;5.20;;;14.20;81.10;;;;;;4987726;28;20637;-72
2023/03/30 05:26:03;;;;;;;13.10;4.70;;;14.10;81.40;;;;;;4992605;28;20240;-73
2023/03/30 05:28:28;;;;;;;15.43;4.87;;;14.10;81.80;;;;;;4993780;28;20485;-72
2023/03/30 05:30:54;;;;;;;14.80;5.40;;;14.10;81.90;;;;;;4994344;28;20429;-72
2023/03/30 05:33:21;;;;;;;14.83;4.87;;;14.10;81.90;;;;;;4989844;28;20214;-73
2023/03/30 05:35:46;;;;;;;14.93;5.40;;;14.00;82.20;;;;;;4994530;28;20959;-71
2023/03/30 05:38:12;;;;;;;17.10;4.73;;;14.00;82.50;;;;;;4994317;28;20437;-71
2023/03/30 05:40:38;;;;;;;12.27;4.23;;;14.00;82.10;;;;;;4993561;28;20203;-71
2023/03/30 05:43:03;;;;;;;20.53;4.50;;;14.00;82.20;;;;;;4991832;28;20616;-73
2023/03/30 05:45:29;;;;;;;19.27;5.33;;;14.10;81.90;;;;;;4994683;28;20245;-73
2023/03/30 05:47:54;;;;;;;14.33;5.40;;;14.10;81.90;;;;;;4994261;28;20180;-73
2023/03/30 05:50:21;;;;;;;19.20;5.70;;;14.20;81.50;;;;;;4995440;28;20188;-73
2023/03/30 05:52:47;;;;;;;21.43;5.53;;;14.20;81.10;;;;;;4988507;28;20215;-73
2023/03/30 05:55:13;;;;;;;21.00;5.00;;;14.30;80.60;;;;;;4995354;28;20435;-73
2023/03/30 05:57:38;;;;;;;13.87;4.33;;;14.30;80.20;;;;;;4995402;28;20663;-72
2023/03/30 06:00:06;;;;;;;21.07;5.70;;;14.40;79.70;;;;;;4994662;28;20681;-73
2023/03/30 06:02:32;;;;;;;18.50;4.70;;;14.50;79.60;;;;;;4992808;28;20204;-72
2023/03/30 06:05:00;;;;;;;18.60;4.73;;;14.50;79.60;;;;;;4994720;28;20506;-72
2023/03/30 06:07:26;;;;;;;11.93;4.90;;;14.50;79.60;;;;;;5003293;28;20287;-74
2023/03/30 06:09:52;;;;;;;16.27;5.43;;;14.60;79.60;;;;;;4996916;28;20493;-74
2023/03/30 06:12:18;;;;;;;19.47;5.10;;;14.50;79.90;;;;;;4991555;28;20460;-73
2023/03/30 06:14:43;;;;;;;12.80;4.73;;;14.30;80.60;;;;;;4999028;28;20218;-73
2023/03/30 06:17:11;;;;;;;18.00;4.90;;;14.20;81.50;;;;;;4997668;28;20191;-72
2023/03/30 06:19:37;;;;;;;13.43;4.70;;;14.10;82.40;;;;;;4999468;28;20211;-73
2023/03/30 06:22:03;;;;;;;14.90;4.70;;;13.80;83.80;;;;;;4998075;28;20462;-73
2023/03/30 06:24:29;;;;;;;18.93;5.23;;;13.70;84.60;;;;;;4996287;28;20925;-73
2023/03/30 06:26:55;;;;;;;17.80;5.50;;;13.60;85.30;;;;;;4995029;28;20183;-72
2023/03/30 06:29:21;;;;;;;12.90;4.77;;;13.50;86.00;;;;;;4994739;28;20509;-73
2023/03/30 06:31:47;;;;;;;17.87;5.40;;;13.60;86.00;;;;;;4992439;28;20431;-72
2023/03/30 06:34:13;;;;;;;23.03;5.93;;;13.60;86.20;;;;;;4995240;28;20414;-73
2023/03/30 06:36:39;;;;;;;15.27;6.17;;;13.60;86.20;;;;;;4995047;28;20180;-74
2023/03/30 06:39:04;;;;;;;20.87;5.27;;;13.70;85.70;;;;;;4998653;28;20190;-74
2023/03/30 06:41:30;;;;;;;16.17;5.70;;;13.70;85.50;;;;;;4986997;28;20674;-73
2023/03/30 06:43:56;;;;;;;16.13;5.20;;;13.70;85.50;;;;;;4988224;28;20722;-74
2023/03/30 06:46:22;;;;;;;23.67;5.00;;;13.80;85.20;;;;;;4992274;28;20498;-74
2023/03/30 06:48:47;;;;;;;14.97;4.30;;;13.90;84.90;;;;;;4993258;28;20202;-75
2023/03/30 06:51:13;;;;;;;22.40;5.23;;;13.90;84.60;;;;;;4992094;28;20231;-73
2023/03/30 06:53:39;;;;;;;19.67;5.97;;;14.00;84.00;;;;;;4988526;28;20305;-73
2023/03/30 06:56:06;;;;;;;16.30;5.17;;;14.00;83.80;;;;;;4993502;28;20190;-74
2023/03/30 06:58:33;;;;;;;11.30;4.70;;;14.20;83.40;;;;;;4990040;28;20418;-72
2023/03/30 07:01:06;;;;;;;17.03;5.20;;;14.30;81.90;;;;;;4994024;28;20479;-75
2023/03/30 07:03:32;;;;;;;18.63;5.03;;;14.40;80.80;;;;;;4987924;28;20458;-74
2023/03/30 07:05:57;;;;;;;29.30;4.97;;;14.40;80.30;;;;;;4989540;28;20443;-74
2023/03/30 07:08:23;;;;;;;12.40;4.43;;;14.40;79.50;;;;;;4991659;28;20191;-75
2023/03/30 07:10:50;;;;;;;20.43;5.20;;;14.50;79.60;;;;;;4992666;28;20572;-75
2023/03/30 07:13:16;;;;;;;15.07;5.00;;;14.50;79.60;;;;;;4989350;28;20272;-72
2023/03/30 07:15:43;;;;;;;16.83;5.40;;;14.50;79.50;;;;;;4997099;28;20445;-72
2023/03/30 07:18:08;;;;;;;13.43;5.03;;;14.40;80.00;;;;;;4992413;28;20963;-73
2023/03/30 07:20:34;;;;;;;15.90;4.67;;;14.40;80.30;;;;;;4991954;28;20462;-72
2023/03/30 07:23:01;;;;;;;13.77;4.53;;;14.50;81.20;;;;;;4985662;28;20215;-72
2023/03/30 07:25:27;;;;;;;13.10;4.50;;;14.40;82.40;;;;;;4989237;28;20176;-73
2023/03/30 07:27:52;;;;;;;11.10;3.90;;;14.30;83.30;;;;;;4991996;28;20446;-72
2023/03/30 07:30:18;;;;;;;22.73;7.30;;;14.20;84.30;;;;;;4992220;28;20333;-73
2023/03/30 07:32:44;;;;;;;12.50;4.40;;;14.00;85.00;;;;;;4988474;28;20924;-72
2023/03/30 07:35:10;;;;;;;17.43;5.03;;;14.00;86.30;;;;;;4992661;28;20485;-72
2023/03/30 07:37:38;;;;;;;19.27;6.37;;;13.90;86.90;;;;;;4993588;28;20192;-72
2023/03/30 07:40:09;;;;;;;15.17;4.70;;;13.80;87.60;;;;;;4989540;28;20294;-73
2023/03/30 07:42:35;;;;;;;13.20;4.20;;;13.60;87.70;;;;;;4986529;28;20605;-73
2023/03/30 07:45:01;;;;;;;12.77;4.83;;;13.40;88.30;;;;;;4991591;28;20504;-72
2023/03/30 07:47:27;;;;;;;15.10;5.10;;;13.30;89.30;;;;;;4991489;28;20434;-73
2023/03/30 07:49:53;;;;;;;16.23;5.50;;;13.20;89.70;;;;;;4991304;28;20421;-71
2023/03/30 07:52:18;;;;;;;10.83;3.97;;;13.10;90.00;;;;;;4988881;28;20206;-72
2023/03/30 07:54:44;;;;;;;11.70;5.37;;;13.10;90.50;;;;;;4990671;28;20679;-74
2023/03/30 07:57:10;;;;;;;13.40;4.90;;;13.00;90.70;;;;;;4992795;28;20519;-74
2023/03/30 07:59:36;;;;;;;21.60;5.57;;;12.90;90.90;;;;;;4991072;28;20631;-73
2023/03/30 08:02:03;;;;;;;11.43;4.17;;;12.80;91.10;;;;;;4987220;28;20561;-73
2023/03/30 08:04:30;;;;;;;18.10;6.47;;;12.80;91.30;;;;;;4986362;28;20438;-73
2023/03/30 08:06:56;;;;;;;12.20;5.40;;;12.90;91.50;;;;;;4994466;28;20907;-72
2023/03/30 08:09:22;;;;;;;11.70;5.20;;;12.90;91.40;;;;;;5001603;28;20454;-73
2023/03/30 08:11:47;;;;;;;14.30;6.20;;;12.90;91.40;;;;;;4992505;28;20445;-73
2023/03/30 08:14:13;;;;;;;28.13;6.70;;;13.00;91.30;;;;;;5002620;28;20417;-73
2023/03/30 08:16:39;;;;;;;18.77;6.83;;;13.10;91.10;;;;;;4989871;28;20197;-74
2023/03/30 08:19:04;;;;;;;12.13;5.17;;;13.10;91.10;;;;;;4991297;28;20634;-73
2023/03/30 08:21:30;;;;;;;12.93;5.17;;;13.20;91.10;;;;;;4990201;28;20674;-72
2023/03/30 08:23:57;;;;;;;11.73;5.30;;;13.20;91.10;;;;;;4991406;28;20212;-73
2023/03/30 08:26:25;;;;;;;9.43;4.43;;;13.20;90.90;;;;;;4997657;28;20186;-74
2023/03/30 08:28:50;;;;;;;10.30;4.23;;;13.20;90.70;;;;;;4990771;28;20418;-74
2023/03/30 08:31:17;;;;;;;10.13;3.77;;;13.10;90.40;;;;;;4995656;28;20434;-71
2023/03/30 08:33:43;;;;;;;10.90;4.00;;;13.10;90.30;;;;;;4987573;28;20652;-73
2023/03/30 08:36:09;;;;;;;11.67;4.50;;;13.10;90.10;;;;;;4994797;28;20499;-72
2023/03/30 08:38:35;;;;;;;7.47;3.23;;;13.10;90.00;;;;;;4991286;28;20433;-73
2023/03/30 08:41:01;;;;;;;12.00;4.57;;;13.20;90.10;;;;;;4991561;28;20465;-72
2023/03/30 08:43:47;;;;;;;14.43;4.63;;;13.20;90.00;;;;;;4990024;28;20210;-71
2023/03/30 08:46:17;;;;;;;8.47;3.70;;;13.30;89.70;;;;;;4990703;28;20422;-72
2023/03/30 08:48:44;;;;;;;12.37;5.13;;;13.30;89.70;;;;;;4991497;28;20930;-71
2023/03/30 08:51:29;;;;;;;10.57;4.67;;;13.30;89.90;;;;;;4993092;28;20852;-73
2023/03/30 08:54:06;;;;;;;12.10;4.20;;;13.30;90.10;;;;;;4987890;28;20481;-71
2023/03/30 08:56:38;;;;;;;6.93;3.60;;;13.10;90.10;;;;;;4994245;28;20467;-71
2023/03/30 08:59:09;;;;;;;7.83;4.07;;;13.10;90.30;;;;;;4987026;28;20426;-71
2023/03/30 09:01:34;;;;;;;5.17;2.90;;;13.00;90.30;;;;;;4988896;28;20465;-72
2023/03/30 09:04:19;;;;;;;6.17;3.20;;;13.00;90.10;;;;;;4985893;28;20444;-71
2023/03/30 09:06:55;;;;;;;6.87;3.23;;;12.90;89.90;;;;;;4996956;28;20263;-72
2023/03/30 09:09:23;;;;;;;10.80;3.00;;;12.80;89.00;;;;;;4994105;28;20433;-70
2023/03/30 09:12:10;;;;;;;8.40;3.40;;;12.80;87.80;;;;;;4988056;28;20752;-71
2023/03/30 09:14:43;;;;;;;5.33;2.73;;;12.80;87.00;;;;;;4993846;28;20413;-72
2023/03/30 09:18:07;;;;;;;6.53;2.97;;;12.90;87.60;;;;;;4993450;28;20410;-71
2023/03/30 09:20:36;;;;;;;7.33;2.97;;;12.80;87.60;;;;;;4947008;28;20474;-72
2023/03/30 09:23:03;;;;;;;6.27;3.27;;;12.80;87.10;;;;;;4969455;28;20557;-72
2023/03/30 09:25:34;;;;;;;5.10;3.10;;;12.90;87.00;;;;;;4971692;28;20422;-71
2023/03/30 09:28:17;;;;;;;6.33;3.20;;;12.90;86.50;;;;;;4970927;28;20450;-72
2023/03/30 09:30:50;;;;;;;8.27;3.03;;;13.00;86.20;;;;;;4952949;28;20954;-72
2023/03/30 09:33:42;;;;;;;5.40;2.97;;;13.10;85.90;;;;;;4969217;28;20524;-72
2023/03/30 09:36:20;;;;;;;11.53;3.43;;;13.10;85.70;;;;;;4970564;28;20446;-71
2023/03/30 09:38:45;;;;;;;4.80;2.83;;;13.20;85.50;;;;;;4971157;28;20827;-72
2023/03/30 09:41:20;;;;;;;7.10;2.97;;;13.30;85.60;;;;;;4971630;28;20466;-72
2023/03/30 09:43:47;;;;;;;10.30;4.33;;;13.40;85.00;;;;;;4973443;28;20217;-71
2023/03/30 09:46:14;;;;;;;5.20;3.33;;;13.40;84.60;;;;;;4957059;28;20778;-71
2023/03/30 09:48:44;;;;;;;7.10;3.47;;;13.50;83.80;;;;;;4971017;28;20437;-71
2023/03/30 09:51:18;;;;;;;5.50;3.30;;;13.50;84.30;;;;;;4971534;28;20502;-72
2023/03/30 09:53:45;;;;;;;10.83;3.13;;;13.50;84.10;;;;;;4979056;28;20450;-72
2023/03/30 09:56:26;;;;;;;5.40;3.30;;;13.50;83.80;;;;;;4993505;28;20825;-72
2023/03/30 09:58:53;;;;;;;5.40;2.93;;;13.50;84.30;;;;;;5000254;28;20425;-72
2023/03/30 10:01:19;;;;;;;4.43;3.17;;;13.60;83.60;;;;;;5000417;28;20556;-72
2023/03/30 10:04:05;;;;;;;6.37;3.13;;;13.50;83.60;;;;;;4999949;28;20445;-72
2023/03/30 10:06:37;;;;;;;5.10;2.77;;;13.50;83.80;;;;;;4992172;28;20473;-72
2023/03/30 10:09:05;;;;;;;5.53;3.63;;;13.60;84.00;;;;;;4993680;28;20441;-72
2023/03/30 10:12:03;;;;;;;6.67;3.13;;;13.70;83.70;;;;;;4990108;28;20425;-72
2023/03/30 10:14:32;;;;;;;11.47;3.77;;;13.90;83.30;;;;;;4972472;28;20427;-73
2023/03/30 10:16:58;;;;;;;12.37;4.00;;;14.10;82.50;;;;;;4977600;28;20422;-73
2023/03/30 10:19:25;;;;;;;5.87;3.83;;;14.20;81.10;;;;;;4973967;28;20964;-72
2023/03/30 10:21:58;;;;;;;6.83;3.57;;;14.20;81.20;;;;;;4977733;28;20423;-73
2023/03/30 10:24:26;;;;;;;5.70;3.37;;;14.40;80.90;;;;;;4975675;28;20844;-72
2023/03/30 10:26:58;;;;;;;7.40;3.30;;;14.50;79.90;;;;;;4972929;28;20430;-72
2023/03/30 10:29:27;;;;;;;8.13;4.00;;;14.60;80.00;;;;;;4970239;28;20428;-74
2023/03/30 10:32:07;;;;;;;9.50;4.07;;;14.70;79.60;;;;;;4971512;28;20811;-74
2023/03/30 10:34:39;;;;;;;8.37;3.60;;;14.60;79.30;;;;;;4971303;28;20427;-73
2023/03/30 10:37:21;;;;;;;6.40;3.83;;;14.40;79.70;;;;;;4970905;28;20919;-73
2023/03/30 10:39:48;;;;;;;5.60;3.23;;;14.40;80.30;;;;;;4967717;28;20505;-73
2023/03/30 10:42:18;;;;;;;6.37;3.90;;;14.30;80.00;;;;;;4968041;28;20458;-72
2023/03/30 10:44:49;;;;;;;8.53;3.47;;;14.40;80.60;;;;;;4970681;28;20454;-73
2023/03/30 10:47:27;;;;;;;7.43;3.80;;;14.40;79.70;;;;;;4969963;28;20423;-73
2023/03/30 10:50:22;;;;;;;6.10;3.87;;;14.40;80.20;;;;;;4976879;28;20423;-74
2023/03/30 10:53:06;;;;;;;5.80;4.03;;;14.50;80.30;;;;;;4993869;28;20465;-72
2023/03/30 10:55:46;;;;;;;6.70;3.63;;;14.60;79.50;;;;;;4992246;28;20429;-75
2023/03/30 10:58:22;;;;;;;8.13;3.70;;;14.60;78.30;;;;;;4988807;28;20413;-73
2023/03/30 11:01:26;;;;;;;5.90;3.50;;;14.60;78.90;;;;;;4992046;28;20476;-73
2023/03/30 11:03:58;;;;;;;6.20;4.17;;;14.60;79.00;;;;;;4986457;28;20453;-72
2023/03/30 11:06:31;;;;;;;6.63;3.47;;;14.50;80.00;;;;;;4996045;28;20443;-75
2023/03/30 11:09:00;;;;;;;6.80;3.57;;;14.60;79.90;;;;;;4990845;28;20410;-73
2023/03/30 11:11:38;;;;;;;13.20;4.10;;;14.60;80.00;;;;;;4989835;28;20430;-72
2023/03/30 11:14:23;;;;;;;6.20;4.13;;;14.70;79.60;;;;;;5006262;28;20492;-73
2023/03/30 11:16:56;;;;;;;11.53;4.33;;;14.80;79.00;;;;;;5002319;28;20410;-73
2023/03/30 11:19:27;;;;;;;8.03;4.00;;;15.00;78.70;;;;;;5003808;28;20435;-72
2023/03/30 11:22:06;;;;;;;8.33;4.07;;;15.00;78.40;;;;;;4997070;28;20506;-74
2023/03/30 11:24:34;;;;;;;10.60;4.37;;;15.20;78.40;;;;;;4990617;28;20447;-73
2023/03/30 11:27:11;;;;;;;9.10;4.37;;;15.30;79.00;;;;;;4995155;28;20790;-73
2023/03/30 11:30:01;;;;;;;13.50;4.73;;;15.40;79.70;;;;;;4991224;28;20424;-74
2023/03/30 11:32:45;;;;;;;9.07;3.63;;;15.40;79.70;;;;;;4983630;28;20458;-73
2023/03/30 11:35:37;;;;;;;7.87;4.37;;;15.50;79.30;;;;;;4992253;28;20430;-73
2023/03/30 11:38:15;;;;;;;9.17;3.80;;;15.50;79.50;;;;;;4986675;28;20437;-73
2023/03/30 11:40:45;;;;;;;7.63;3.63;;;15.50;79.50;;;;;;4991213;28;20476;-74
2023/03/30 11:43:15;;;;;;;10.83;4.30;;;15.60;79.60;;;;;;4986862;28;20518;-74
2023/03/30 11:45:44;;;;;;;8.60;3.83;;;15.70;79.30;;;;;;4992725;28;20459;-73
2023/03/30 11:48:15;;;;;;;7.60;4.03;;;15.50;78.30;;;;;;4991047;28;20414;-73
2023/03/30 11:50:53;;;;;;;10.10;4.10;;;15.40;79.20;;;;;;4992573;28;21400;-73
2023/03/30 11:53:40;;;;;;;12.57;3.90;;;15.50;79.30;;;;;;4986850;28;20483;-73
2023/03/30 11:56:35;;;;;;;7.37;3.80;;;15.50;78.90;;;;;;4988032;28;20420;-73
2023/03/30 11:59:08;;;;;;;7.20;4.20;;;15.50;78.90;;;;;;4968829;28;20425;-72
2023/03/30 12:01:57;;;;;;;6.70;3.80;;;15.60;78.30;;;;;;4968669;28;20475;-73
2023/03/30 12:04:31;;;;;;;13.30;3.83;;;15.60;78.10;;;;;;4968840;28;20442;-73
2023/03/30 12:06:59;;;;;;;10.50;4.40;;;15.60;78.10;;;;;;4975953;28;20422;-72
2023/03/30 12:09:25;;;;;;;6.50;3.50;;;15.80;78.00;;;;;;4980979;28;21020;-72
2023/03/30 12:12:05;;;;;;;10.13;3.83;;;15.70;77.60;;;;;;4976876;28;20423;-73
2023/03/30 12:15:01;;;;;;;11.57;3.80;;;15.70;77.80;;;;;;4976234;28;20179;-72
2023/03/30 12:18:05;;;;;;;11.10;4.80;;;15.80;77.10;;;;;;4978752;28;21011;-73
2023/03/30 12:20:50;;;;;;;7.50;3.90;;;15.60;77.10;;;;;;4892793;29;20646;-72
2023/03/30 12:23:15;;;;;;;10.00;4.13;;;15.40;77.30;;;;;;4889034;29;21072;-73
2023/03/30 12:25:54;;;;;;;6.77;3.97;;;15.40;77.80;;;;;;4894931;29;20524;-73
2023/03/30 12:28:25;;;;;;;11.57;5.30;;;15.40;78.10;;;;;;4892982;29;20384;-73
2023/03/30 12:30:57;;;;;;;9.83;4.13;;;15.30;77.70;;;;;;4892936;29;20432;-73
2023/03/30 12:33:35;;;;;;;6.73;4.13;;;15.40;77.70;;;;;;4888256;29;20482;-73
2023/03/30 12:36:25;;;;;;;11.17;5.00;;;15.30;77.70;;;;;;4919968;29;20553;-73
2023/03/30 12:38:56;;;;;;;12.43;4.77;;;15.40;77.40;;;;;;4929411;29;20515;-73
2023/03/30 12:41:25;;;;;;;7.97;4.00;;;15.70;76.20;;;;;;4928776;29;20471;-72
2023/03/30 12:44:38;;;;;;;13.00;5.63;;;16.10;75.40;;;;;;4925900;29;20467;-73
2023/03/30 12:47:45;;;;;;;16.83;5.20;;;16.40;73.20;;;;;;4890673;29;20438;-73
2023/03/30 12:50:29;;;;;;;7.83;4.33;;;16.40;73.00;;;;;;4883433;29;20946;-72
2023/03/30 12:53:13;;;;;;;10.20;4.40;;;16.60;72.40;;;;;;4890024;29;20993;-74
2023/03/30 12:55:41;;;;;;;7.93;4.50;;;16.60;71.30;;;;;;4894568;28;20434;-75
2023/03/30 12:58:25;;;;;;;10.27;4.10;;;16.70;70.50;;;;;;4967608;28;20956;-73
2023/03/30 13:01:11;;;;;;;8.10;4.10;;;16.70;70.20;;;;;;4949840;28;20473;-74
2023/03/30 13:03:37;;;;;;;9.60;3.93;;;16.60;69.70;;;;;;4947373;28;20466;-74